Terminal Aerodrome Forecast
Issued by NWS Cleveland, OH

Home | Current Version | Previous Version | Text Only | Print | Product List | Glossary On
Versions: 1 2 3 4 5 6 7 8 9 10 11 12 13 14 15 16 17 18 19 20 21 22
196
FTUS41 KCLE 261704 AAB
TAFTOL
TAF AMD
KTOL 261704Z 2617/2712 11005KT 5SM BR VCSH OVC004
     FM261900 15007KT P6SM -SHRA SCT015 BKN025
      TEMPO 2619/2622 19005KT 3SM -SHRA BR OVC006
     FM262200 20008KT 6SM -SHRA VCTS BKN025CB OVC120
      TEMPO 2622/2701 3SM -TSRA BKN015CB
     FM270300 20004KT 5SM BR SCT008 BKN120
     FM270600 23005KT 2SM BR OVC008=

USA.gov is the U.S. government's official web portal to all federal, state and local government web resources and services.